Time;durP1;ratioP1;P1;durP2;ratioP2;P2;SDS_P1;SDS_P2;PMS_P1;PMS_P2;Temp;Humidity;BMP_temperature;BMP_pressure;BME280_temperature;BME280_humidity;BME280_pressure;Samples;Min_cycle;Max_cycle;Signal;HPM_P1;HPM_P2
2023/11/13 00:00:19;;;;;;;;;;;;;;;-128.00;-1.00;-1.00;107088;1250;1013180;-58
2023/11/13 00:02:46;;;;;;;25.40;14.80;;;;;;;-128.00;-1.00;-1.00;106985;1251;1002643;-61
2023/11/13 00:05:15;;;;;;;22.80;15.60;;;;;;;-128.00;-1.00;-1.00;106690;1251;1002155;-59
2023/11/13 00:07:43;;;;;;;33.90;18.60;;;;;;;-128.00;-1.00;-1.00;107012;1251;1010496;-58
2023/11/13 00:10:11;;;;;;;29.70;17.60;;;;;;;-128.00;-1.00;-1.00;106464;1251;1002830;-60
2023/11/13 00:12:39;;;;;;;27.10;16.80;;;;;;;-128.00;-1.00;-1.00;106993;1251;1012808;-59
2023/11/13 00:15:07;;;;;;;29.50;17.10;;;;;;;-128.00;-1.00;-1.00;106932;1251;1002303;-60
2023/11/13 00:17:34;;;;;;;30.30;17.50;;;;;;;-128.00;-1.00;-1.00;106904;1251;1013464;-59
2023/11/13 00:20:05;;;;;;;32.00;21.10;;;;;;;-128.00;-1.00;-1.00;106905;1251;1002684;-60
2023/11/13 00:22:32;;;;;;;47.10;30.30;;;;;;;-128.00;-1.00;-1.00;106691;1252;1011908;-59
2023/11/13 00:25:00;;;;;;;45.50;27.50;;;;;;;-128.00;-1.00;-1.00;106996;1251;1002749;-60
2023/11/13 00:27:28;;;;;;;59.90;33.80;;;;;;;-128.00;-1.00;-1.00;106620;1251;1002416;-61
2023/11/13 00:29:55;;;;;;;56.80;33.20;;;;;;;-128.00;-1.00;-1.00;106964;1251;1002240;-58
2023/11/13 00:32:22;;;;;;;100.10;58.50;;;;;;;-128.00;-1.00;-1.00;106953;1251;1002892;-59
2023/11/13 00:34:50;;;;;;;33.80;21.10;;;;;;;-128.00;-1.00;-1.00;106965;1251;1002515;-59
2023/11/13 00:37:18;;;;;;;34.80;21.60;;;;;;;-128.00;-1.00;-1.00;106963;1252;1002506;-61
2023/11/13 00:39:45;;;;;;;35.40;21.90;;;;;;;-128.00;-1.00;-1.00;106867;1253;1002445;-59
2023/11/13 00:42:15;;;;;;;34.30;21.90;;;;;;;-128.00;-1.00;-1.00;106459;1255;1002667;-59
2023/11/13 00:44:43;;;;;;;33.30;21.30;;;;;;;-128.00;-1.00;-1.00;106569;1256;1009759;-59
2023/11/13 00:47:10;;;;;;;33.60;20.40;;;;;;;-128.00;-1.00;-1.00;106527;1256;1002293;-58
2023/11/13 00:49:38;;;;;;;32.00;19.20;;;;;;;-128.00;-1.00;-1.00;106527;1255;1002097;-58
2023/11/13 00:52:06;;;;;;;30.50;20.80;;;;;;;-128.00;-1.00;-1.00;106583;1255;1002457;-58
2023/11/13 00:54:34;;;;;;;33.00;20.80;;;;;;;-128.00;-1.00;-1.00;106434;1255;1002756;-59
2023/11/13 00:57:02;;;;;;;33.60;20.80;;;;;;;-128.00;-1.00;-1.00;106547;1260;1010803;-61
2023/11/13 00:59:29;;;;;;;31.70;19.90;;;;;;;-128.00;-1.00;-1.00;106529;1256;1002421;-60
2023/11/13 01:01:59;;;;;;;31.60;21.60;;;;;;;-128.00;-1.00;-1.00;106556;1260;1002121;-61
2023/11/13 01:04:27;;;;;;;77.30;51.10;;;;;;;-128.00;-1.00;-1.00;106463;1256;1013575;-61
2023/11/13 01:06:55;;;;;;;138.50;71.40;;;;;;;-128.00;-1.00;-1.00;106390;1255;1002476;-61
2023/11/13 01:09:22;;;;;;;77.30;40.80;;;;;;;-128.00;-1.00;-1.00;106561;1256;1010339;-61
2023/11/13 01:11:52;;;;;;;65.40;32.00;;;;;;;-128.00;-1.00;-1.00;106544;1256;1002881;-61
2023/11/13 01:14:20;;;;;;;47.80;29.30;;;;;;;-128.00;-1.00;-1.00;106844;1253;1013294;-61
2023/11/13 01:16:48;;;;;;;44.20;27.40;;;;;;;-128.00;-1.00;-1.00;106611;1252;1002221;-61
2023/11/13 01:19:15;;;;;;;38.90;24.50;;;;;;;-128.00;-1.00;-1.00;106869;1252;1002430;-60
2023/11/13 01:21:43;;;;;;;39.90;25.50;;;;;;;-128.00;-1.00;-1.00;106738;1255;1002042;-61
2023/11/13 01:24:11;;;;;;;39.10;25.20;;;;;;;-128.00;-1.00;-1.00;106447;1254;1001882;-61
2023/11/13 01:26:38;;;;;;;30.90;19.00;;;;;;;-128.00;-1.00;-1.00;106300;1258;1002393;-60
2023/11/13 01:29:06;;;;;;;38.60;22.90;;;;;;;-128.00;-1.00;-1.00;106274;1258;1002517;-62
2023/11/13 01:31:33;;;;;;;33.60;21.80;;;;;;;-128.00;-1.00;-1.00;106352;1257;1002306;-60
2023/11/13 01:34:01;;;;;;;29.90;19.80;;;;;;;-128.00;-1.00;-1.00;106443;1257;1002688;-62
2023/11/13 01:36:30;;;;;;;33.00;20.40;;;;;;;-128.00;-1.00;-1.00;106273;1257;1002148;-58
2023/11/13 01:38:57;;;;;;;32.10;20.40;;;;;;;-128.00;-1.00;-1.00;106339;1257;1013738;-60
2023/11/13 01:41:25;;;;;;;33.40;20.30;;;;;;;-128.00;-1.00;-1.00;106413;1256;1002393;-61
2023/11/13 01:43:53;;;;;;;44.30;26.70;;;;;;;-128.00;-1.00;-1.00;106452;1257;1002216;-61
2023/11/13 01:46:20;;;;;;;37.30;23.60;;;;;;;-128.00;-1.00;-1.00;106392;1257;1002772;-58
2023/11/13 01:48:48;;;;;;;43.20;25.60;;;;;;;-128.00;-1.00;-1.00;106387;1257;1002602;-59
2023/11/13 01:51:16;;;;;;;56.50;35.60;;;;;;;-128.00;-1.00;-1.00;106414;1257;1002799;-61
2023/11/13 01:53:43;;;;;;;37.10;23.40;;;;;;;-128.00;-1.00;-1.00;106528;1256;1001839;-61
2023/11/13 01:56:11;;;;;;;33.20;19.40;;;;;;;-128.00;-1.00;-1.00;106633;1254;1003402;-61
2023/11/13 01:58:39;;;;;;;32.60;18.20;;;;;;;-128.00;-1.00;-1.00;106771;1258;1002594;-58
2023/11/13 02:01:06;;;;;;;32.10;20.60;;;;;;;-128.00;-1.00;-1.00;106715;1253;1002409;-57
2023/11/13 02:03:34;;;;;;;33.90;21.10;;;;;;;-128.00;-1.00;-1.00;106876;1256;1002253;-57
2023/11/13 02:06:02;;;;;;;32.10;20.20;;;;;;;-128.00;-1.00;-1.00;106940;1251;1012157;-57
2023/11/13 02:08:29;;;;;;;33.30;19.30;;;;;;;-128.00;-1.00;-1.00;106918;1254;1002288;-58
2023/11/13 02:10:59;;;;;;;31.30;19.60;;;;;;;-128.00;-1.00;-1.00;106896;1250;1002405;-58
2023/11/13 02:13:28;;;;;;;32.60;19.70;;;;;;;-128.00;-1.00;-1.00;106942;1251;1011868;-59
2023/11/13 02:15:55;;;;;;;29.70;18.80;;;;;;;-128.00;-1.00;-1.00;107047;1251;1002733;-58
2023/11/13 02:18:23;;;;;;;33.60;21.40;;;;;;;-128.00;-1.00;-1.00;107010;1256;1002207;-58
2023/11/13 02:20:50;;;;;;;30.10;19.80;;;;;;;-128.00;-1.00;-1.00;107044;1251;1002272;-58
2023/11/13 02:23:18;;;;;;;25.90;17.30;;;;;;;-128.00;-1.00;-1.00;106624;1250;1002127;-58
2023/11/13 02:25:49;;;;;;;27.20;18.00;;;;;;;-128.00;-1.00;-1.00;107053;1249;1001685;-59
2023/11/13 02:28:16;;;;;;;29.60;18.40;;;;;;;-128.00;-1.00;-1.00;106919;1251;1012627;-58
2023/11/13 02:30:44;;;;;;;27.60;17.60;;;;;;;-128.00;-1.00;-1.00;107099;1250;1002635;-60
2023/11/13 02:33:11;;;;;;;31.10;19.60;;;;;;;-128.00;-1.00;-1.00;107047;1251;1002573;-58
2023/11/13 02:35:39;;;;;;;26.50;16.90;;;;;;;-128.00;-1.00;-1.00;107086;1251;1002579;-60
2023/11/13 02:38:07;;;;;;;30.10;20.60;;;;;;;-128.00;-1.00;-1.00;107074;1251;1002124;-58
2023/11/13 02:40:34;;;;;;;36.40;22.30;;;;;;;-128.00;-1.00;-1.00;107077;1251;1003452;-60
2023/11/13 02:43:03;;;;;;;34.30;21.70;;;;;;;-128.00;-1.00;-1.00;107041;1251;1012287;-59
2023/11/13 02:45:30;;;;;;;33.00;20.00;;;;;;;-128.00;-1.00;-1.00;106853;1250;1002560;-59
2023/11/13 02:47:58;;;;;;;25.60;17.60;;;;;;;-128.00;-1.00;-1.00;107031;1254;1002396;-59
2023/11/13 02:50:25;;;;;;;24.90;16.70;;;;;;;-128.00;-1.00;-1.00;107024;1250;1002689;-60
2023/11/13 02:52:53;;;;;;;28.30;16.90;;;;;;;-128.00;-1.00;-1.00;107083;1254;1002236;-60
2023/11/13 02:55:20;;;;;;;24.40;16.10;;;;;;;-128.00;-1.00;-1.00;107041;1251;1002639;-59
2023/11/13 02:57:48;;;;;;;29.10;17.80;;;;;;;-128.00;-1.00;-1.00;107055;1251;1002545;-61
2023/11/13 03:00:16;;;;;;;26.00;17.70;;;;;;;-128.00;-1.00;-1.00;107046;1251;1002029;-59
2023/11/13 03:02:43;;;;;;;26.30;17.70;;;;;;;-128.00;-1.00;-1.00;107074;1250;1002865;-59
2023/11/13 03:05:11;;;;;;;29.40;16.50;;;;;;;-128.00;-1.00;-1.00;106953;1250;1002558;-58
2023/11/13 03:07:38;;;;;;;31.60;17.70;;;;;;;-128.00;-1.00;-1.00;106869;1251;1002953;-58
2023/11/13 03:10:06;;;;;;;28.30;20.90;;;;;;;-128.00;-1.00;-1.00;106912;1251;1002673;-59
2023/11/13 03:12:33;;;;;;;48.40;33.00;;;;;;;-128.00;-1.00;-1.00;106865;1250;1002562;-61
2023/11/13 03:15:01;;;;;;;55.20;34.60;;;;;;;-128.00;-1.00;-1.00;106960;1251;1002296;-59
2023/11/13 03:17:28;;;;;;;47.80;26.50;;;;;;;-128.00;-1.00;-1.00;106905;1251;1002719;-59
2023/11/13 03:19:56;;;;;;;34.40;18.50;;;;;;;-128.00;-1.00;-1.00;106674;1251;1002873;-58
2023/11/13 03:22:24;;;;;;;28.10;18.10;;;;;;;-128.00;-1.00;-1.00;106898;1251;1002988;-58
2023/11/13 03:24:51;;;;;;;28.90;17.70;;;;;;;-128.00;-1.00;-1.00;106599;1251;1002072;-58
2023/11/13 03:27:19;;;;;;;29.70;20.50;;;;;;;-128.00;-1.00;-1.00;106943;1251;1002184;-58
2023/11/13 03:29:46;;;;;;;24.40;16.90;;;;;;;-128.00;-1.00;-1.00;106907;1251;1002037;-58
2023/11/13 03:32:14;;;;;;;24.10;17.20;;;;;;;-128.00;-1.00;-1.00;106916;1251;1002131;-57
2023/11/13 03:34:41;;;;;;;103.00;25.00;;;;;;;-128.00;-1.00;-1.00;106888;1251;1002342;-57
2023/11/13 03:37:10;;;;;;;21.00;15.50;;;;;;;-128.00;-1.00;-1.00;106880;1250;1002675;-58
2023/11/13 03:39:37;;;;;;;21.90;15.30;;;;;;;-128.00;-1.00;-1.00;106912;1250;1011152;-59
2023/11/13 03:42:05;;;;;;;22.40;15.70;;;;;;;-128.00;-1.00;-1.00;106861;1250;1003001;-58
2023/11/13 03:44:32;;;;;;;33.60;16.70;;;;;;;-128.00;-1.00;-1.00;106868;1255;1002458;-58
2023/11/13 03:47:00;;;;;;;25.20;17.50;;;;;;;-128.00;-1.00;-1.00;106974;1251;1002423;-59
2023/11/13 03:49:27;;;;;;;24.80;15.80;;;;;;;-128.00;-1.00;-1.00;106876;1250;1002721;-59
2023/11/13 03:51:55;;;;;;;22.10;16.00;;;;;;;-128.00;-1.00;-1.00;106949;1251;1001952;-60
2023/11/13 03:54:23;;;;;;;28.50;22.60;;;;;;;-128.00;-1.00;-1.00;106859;1251;1002210;-58
2023/11/13 03:56:50;;;;;;;32.10;24.10;;;;;;;-128.00;-1.00;-1.00;106832;1252;1002574;-59
2023/11/13 03:59:18;;;;;;;142.80;71.80;;;;;;;-128.00;-1.00;-1.00;106904;1251;1002319;-57
2023/11/13 04:01:48;;;;;;;26.10;17.60;;;;;;;-128.00;-1.00;-1.00;106852;1251;1002205;-57
2023/11/13 04:04:17;;;;;;;50.10;26.30;;;;;;;-128.00;-1.00;-1.00;106786;1252;1012080;-58
2023/11/13 04:06:45;;;;;;;48.40;30.20;;;;;;;-128.00;-1.00;-1.00;106783;1254;1002845;-58
2023/11/13 04:09:13;;;;;;;25.30;17.30;;;;;;;-128.00;-1.00;-1.00;106843;1253;1003084;-58
2023/11/13 04:11:40;;;;;;;20.80;15.80;;;;;;;-128.00;-1.00;-1.00;106870;1253;1002396;-59
2023/11/13 04:14:08;;;;;;;22.20;15.10;;;;;;;-128.00;-1.00;-1.00;106537;1254;1002618;-58
2023/11/13 04:16:35;;;;;;;23.70;17.60;;;;;;;-128.00;-1.00;-1.00;106897;1253;1002554;-58
2023/11/13 04:19:03;;;;;;;27.10;17.70;;;;;;;-128.00;-1.00;-1.00;106872;1254;1002761;-60
2023/11/13 04:21:31;;;;;;;24.90;17.10;;;;;;;-128.00;-1.00;-1.00;106826;1254;1002026;-59
2023/11/13 04:23:59;;;;;;;23.00;16.00;;;;;;;-128.00;-1.00;-1.00;106878;1252;1013080;-58
2023/11/13 04:26:27;;;;;;;24.90;16.80;;;;;;;-128.00;-1.00;-1.00;106907;1253;1002688;-57
2023/11/13 04:28:55;;;;;;;23.40;16.70;;;;;;;-128.00;-1.00;-1.00;106857;1253;1002613;-58
2023/11/13 04:31:23;;;;;;;22.20;17.60;;;;;;;-128.00;-1.00;-1.00;106876;1253;1002043;-58
2023/11/13 04:33:50;;;;;;;26.70;20.80;;;;;;;-128.00;-1.00;-1.00;106464;1254;1012624;-58
2023/11/13 04:36:20;;;;;;;27.40;18.50;;;;;;;-128.00;-1.00;-1.00;106736;1254;1002298;-58
2023/11/13 04:38:48;;;;;;;46.80;28.60;;;;;;;-128.00;-1.00;-1.00;106628;1253;1010576;-57
2023/11/13 04:41:16;;;;;;;34.80;22.80;;;;;;;-128.00;-1.00;-1.00;106642;1254;1001871;-60
2023/11/13 04:43:44;;;;;;;31.40;18.00;;;;;;;-128.00;-1.00;-1.00;106646;1254;1013232;-58
2023/11/13 04:46:12;;;;;;;22.80;15.80;;;;;;;-128.00;-1.00;-1.00;106629;1254;1002367;-58
2023/11/13 04:48:40;;;;;;;68.10;28.20;;;;;;;-128.00;-1.00;-1.00;106679;1254;1012886;-58
2023/11/13 04:51:08;;;;;;;26.80;15.20;;;;;;;-128.00;-1.00;-1.00;106629;1254;1002824;-58
2023/11/13 04:53:35;;;;;;;44.90;22.70;;;;;;;-128.00;-1.00;-1.00;106625;1254;1002497;-57
2023/11/13 04:56:03;;;;;;;26.30;16.70;;;;;;;-128.00;-1.00;-1.00;106661;1254;1002549;-58
2023/11/13 04:58:32;;;;;;;27.70;16.20;;;;;;;-128.00;-1.00;-1.00;106578;1254;1002299;-57
2023/11/13 05:01:00;;;;;;;23.70;16.00;;;;;;;-128.00;-1.00;-1.00;106582;1254;1012855;-57
2023/11/13 05:03:27;;;;;;;31.90;17.80;;;;;;;-128.00;-1.00;-1.00;106682;1253;1002153;-58
2023/11/13 05:05:55;;;;;;;33.80;18.00;;;;;;;-128.00;-1.00;-1.00;106612;1254;1002051;-58
2023/11/13 05:08:23;;;;;;;32.90;19.10;;;;;;;-128.00;-1.00;-1.00;106810;1254;1002928;-57
2023/11/13 05:10:51;;;;;;;25.70;17.60;;;;;;;-128.00;-1.00;-1.00;106682;1253;1012551;-58
2023/11/13 05:13:18;;;;;;;25.00;16.80;;;;;;;-128.00;-1.00;-1.00;106773;1251;1002015;-59
2023/11/13 05:15:46;;;;;;;18.50;14.50;;;;;;;-128.00;-1.00;-1.00;106760;1251;1002310;-57
2023/11/13 05:18:13;;;;;;;23.30;16.10;;;;;;;-128.00;-1.00;-1.00;106884;1250;1002132;-58
2023/11/13 05:20:45;;;;;;;32.50;18.60;;;;;;;-128.00;-1.00;-1.00;106836;1251;1002363;-57
2023/11/13 05:23:14;;;;;;;23.10;15.50;;;;;;;-128.00;-1.00;-1.00;106851;1256;1012342;-58
2023/11/13 05:25:43;;;;;;;25.00;14.70;;;;;;;-128.00;-1.00;-1.00;106904;1251;1002552;-59
2023/11/13 05:28:11;;;;;;;24.70;15.90;;;;;;;-128.00;-1.00;-1.00;106750;1251;1009843;-58
2023/11/13 05:30:39;;;;;;;;;;;;;;;-128.00;-1.00;-1.00;106911;1251;1010866;-59
2023/11/13 05:33:07;;;;;;;28.30;15.70;;;;;;;-128.00;-1.00;-1.00;106919;1251;1002491;-58
2023/11/13 05:35:35;;;;;;;32.50;15.80;;;;;;;-128.00;-1.00;-1.00;106634;1251;1002546;-59
2023/11/13 05:38:03;;;;;;;26.00;17.70;;;;;;;-128.00;-1.00;-1.00;106833;1251;1002071;-60
2023/11/13 05:40:31;;;;;;;27.60;16.00;;;;;;;-128.00;-1.00;-1.00;106829;1251;1010564;-58
2023/11/13 05:42:59;;;;;;;22.40;14.20;;;;;;;-128.00;-1.00;-1.00;106928;1251;1002349;-59
2023/11/13 05:45:26;;;;;;;28.50;17.60;;;;;;;-128.00;-1.00;-1.00;106891;1251;1013725;-60
2023/11/13 05:47:54;;;;;;;19.60;13.50;;;;;;;-128.00;-1.00;-1.00;106892;1252;1002308;-58
2023/11/13 05:50:22;;;;;;;22.30;15.70;;;;;;;-128.00;-1.00;-1.00;106913;1251;1002338;-58
2023/11/13 05:52:51;;;;;;;40.70;24.80;;;;;;;-128.00;-1.00;-1.00;106939;1251;1009667;-58
2023/11/13 05:55:19;;;;;;;38.50;23.10;;;;;;;-128.00;-1.00;-1.00;106886;1251;1002565;-58
2023/11/13 05:57:46;;;;;;;18.10;13.90;;;;;;;-128.00;-1.00;-1.00;106914;1250;1002117;-58
2023/11/13 06:00:16;;;;;;;21.30;14.50;;;;;;;-128.00;-1.00;-1.00;106688;1251;1002131;-57
2023/11/13 06:02:43;;;;;;;24.90;16.20;;;;;;;-128.00;-1.00;-1.00;106837;1250;1012773;-57
2023/11/13 06:05:11;;;;;;;22.70;13.90;;;;;;;-128.00;-1.00;-1.00;106878;1251;1002484;-58
2023/11/13 06:07:38;;;;;;;26.70;16.20;;;;;;;-128.00;-1.00;-1.00;106908;1250;1002130;-57
2023/11/13 06:10:14;;;;;;;24.00;15.70;;;;;;;-128.00;-1.00;-1.00;106847;1251;1001932;-57
2023/11/13 06:12:43;;;;;;;23.20;16.10;;;;;;;-128.00;-1.00;-1.00;106427;1255;1011893;-57
2023/11/13 06:15:13;;;;;;;31.10;16.10;;;;;;;-128.00;-1.00;-1.00;106915;1251;1013542;-58
2023/11/13 06:17:40;;;;;;;17.40;12.50;;;;;;;-128.00;-1.00;-1.00;106925;1250;1010052;-57
2023/11/13 06:20:09;;;;;;;19.50;13.30;;;;;;;-128.00;-1.00;-1.00;106761;1251;1001747;-58
2023/11/13 06:22:37;;;;;;;19.70;12.90;;;;;;;-128.00;-1.00;-1.00;106861;1253;1012530;-58
2023/11/13 06:25:05;;;;;;;18.30;12.20;;;;;;;-128.00;-1.00;-1.00;106907;1251;1002814;-57
2023/11/13 06:27:34;;;;;;;41.50;24.30;;;;;;;-128.00;-1.00;-1.00;106897;1250;1012854;-57
2023/11/13 06:30:02;;;;;;;21.20;13.90;;;;;;;-128.00;-1.00;-1.00;106903;1251;1009641;-57
2023/11/13 06:32:30;;;;;;;20.90;15.70;;;;;;;-128.00;-1.00;-1.00;106894;1251;1011050;-58
2023/11/13 06:34:58;;;;;;;25.30;15.40;;;;;;;-128.00;-1.00;-1.00;106871;1251;1002361;-57
2023/11/13 06:37:25;;;;;;;21.00;13.80;;;;;;;-128.00;-1.00;-1.00;106881;1252;1002141;-57
2023/11/13 06:39:53;;;;;;;18.20;13.70;;;;;;;-128.00;-1.00;-1.00;106910;1250;1002317;-57
2023/11/13 06:42:20;;;;;;;34.10;22.50;;;;;;;-128.00;-1.00;-1.00;106927;1251;1002499;-57
2023/11/13 06:44:48;;;;;;;52.50;29.40;;;;;;;-128.00;-1.00;-1.00;106783;1251;1002461;-57
2023/11/13 06:47:16;;;;;;;20.00;11.90;;;;;;;-128.00;-1.00;-1.00;106896;1250;1002509;-58
2023/11/13 06:49:44;;;;;;;24.30;16.30;;;;;;;-128.00;-1.00;-1.00;106879;1251;1013226;-57
2023/11/13 06:52:11;;;;;;;15.70;12.70;;;;;;;-128.00;-1.00;-1.00;106901;1251;1002891;-56
2023/11/13 06:54:40;;;;;;;19.20;13.00;;;;;;;-128.00;-1.00;-1.00;106910;1251;1002438;-57
2023/11/13 06:57:08;;;;;;;23.00;13.80;;;;;;;-128.00;-1.00;-1.00;106851;1254;1011423;-57
2023/11/13 06:59:36;;;;;;;19.70;11.60;;;;;;;-128.00;-1.00;-1.00;106885;1251;1002467;-56
2023/11/13 07:02:03;;;;;;;16.20;12.40;;;;;;;-128.00;-1.00;-1.00;106693;1255;1002309;-57
2023/11/13 07:04:31;;;;;;;16.50;13.80;;;;;;;-128.00;-1.00;-1.00;106737;1251;1002227;-57
2023/11/13 07:07:01;;;;;;;14.60;10.80;;;;;;;-128.00;-1.00;-1.00;106806;1253;1002601;-58
2023/11/13 07:09:28;;;;;;;21.30;13.70;;;;;;;-128.00;-1.00;-1.00;106881;1252;1010985;-57
2023/11/13 07:11:56;;;;;;;19.50;13.20;;;;;;;-128.00;-1.00;-1.00;106642;1253;1002523;-57
2023/11/13 07:14:24;;;;;;;19.20;12.90;;;;;;;-128.00;-1.00;-1.00;106858;1252;1002108;-57
2023/11/13 07:16:52;;;;;;;18.10;13.00;;;;;;;-128.00;-1.00;-1.00;106906;1252;1002644;-57
2023/11/13 07:19:20;;;;;;;14.80;11.40;;;;;;;-128.00;-1.00;-1.00;106845;1252;1009960;-57
2023/11/13 07:21:47;;;;;;;15.70;11.40;;;;;;;-128.00;-1.00;-1.00;106759;1252;1002427;-60
2023/11/13 07:24:15;;;;;;;19.10;13.00;;;;;;;-128.00;-1.00;-1.00;106857;1253;1002801;-60
2023/11/13 07:26:43;;;;;;;14.50;9.10;;;;;;;-128.00;-1.00;-1.00;106872;1252;1002715;-60
2023/11/13 07:29:11;;;;;;;14.80;9.90;;;;;;;-128.00;-1.00;-1.00;106903;1252;1013369;-58
2023/11/13 07:31:39;;;;;;;18.30;11.70;;;;;;;-128.00;-1.00;-1.00;106855;1252;1002279;-57
2023/11/13 07:34:10;;;;;;;16.20;12.20;;;;;;;-128.00;-1.00;-1.00;106867;1251;1002976;-60
2023/11/13 07:36:38;;;;;;;19.60;13.40;;;;;;;-128.00;-1.00;-1.00;106849;1251;1012877;-56
2023/11/13 07:39:07;;;;;;;13.80;10.30;;;;;;;-128.00;-1.00;-1.00;106929;1250;1002174;-57
2023/11/13 07:41:34;;;;;;;16.70;12.70;;;;;;;-128.00;-1.00;-1.00;106556;1251;1014618;-56
2023/11/13 07:44:02;;;;;;;14.80;11.90;;;;;;;-128.00;-1.00;-1.00;106868;1251;1003011;-57
2023/11/13 07:46:30;;;;;;;18.00;13.90;;;;;;;-128.00;-1.00;-1.00;106870;1251;1010594;-58
2023/11/13 07:48:58;;;;;;;14.40;11.90;;;;;;;-128.00;-1.00;-1.00;106861;1251;1002135;-59
2023/11/13 07:51:26;;;;;;;16.90;11.80;;;;;;;-128.00;-1.00;-1.00;106816;1251;1002470;-58
2023/11/13 07:53:53;;;;;;;23.40;16.60;;;;;;;-128.00;-1.00;-1.00;106737;1251;1002492;-58
2023/11/13 07:56:22;;;;;;;18.70;14.10;;;;;;;-128.00;-1.00;-1.00;106849;1251;1002501;-58
2023/11/13 07:58:50;;;;;;;21.00;14.40;;;;;;;-128.00;-1.00;-1.00;106868;1251;1011178;-58
2023/11/13 08:01:19;;;;;;;89.80;35.00;;;;;;;-128.00;-1.00;-1.00;106929;1251;1002895;-60
2023/11/13 08:03:47;;;;;;;;;;;;;;;-128.00;-1.00;-1.00;106888;1252;1012467;-58
2023/11/13 08:06:15;;;;;;;19.90;14.60;;;;;;;-128.00;-1.00;-1.00;106844;1252;1012731;-58
2023/11/13 08:08:45;;;;;;;16.80;12.90;;;;;;;-128.00;-1.00;-1.00;106904;1251;1002748;-58
2023/11/13 08:11:12;;;;;;;18.20;12.40;;;;;;;-128.00;-1.00;-1.00;106884;1250;1011734;-58
2023/11/13 08:13:40;;;;;;;19.50;13.10;;;;;;;-128.00;-1.00;-1.00;106889;1251;1003021;-59
2023/11/13 08:16:08;;;;;;;15.80;11.20;;;;;;;-128.00;-1.00;-1.00;106905;1251;1003367;-58
2023/11/13 08:18:36;;;;;;;15.50;10.50;;;;;;;-128.00;-1.00;-1.00;106914;1251;1013104;-58
2023/11/13 08:21:04;;;;;;;11.40;9.80;;;;;;;-128.00;-1.00;-1.00;106894;1250;1002061;-59
2023/11/13 08:23:31;;;;;;;10.00;8.10;;;;;;;-128.00;-1.00;-1.00;106945;1251;1001870;-59
2023/11/13 08:26:00;;;;;;;14.60;11.10;;;;;;;-128.00;-1.00;-1.00;106895;1251;1004640;-59
2023/11/13 08:28:31;;;;;;;17.80;12.20;;;;;;;-128.00;-1.00;-1.00;106832;1250;1014294;-58
2023/11/13 08:31:07;;;;;;;12.90;10.20;;;;;;;-128.00;-1.00;-1.00;106865;1250;1012902;-58
2023/11/13 08:33:37;;;;;;;13.50;9.90;;;;;;;-128.00;-1.00;-1.00;106881;1251;1009881;-58
2023/11/13 08:36:06;;;;;;;12.90;11.30;;;;;;;-128.00;-1.00;-1.00;106952;1251;1010477;-57
2023/11/13 08:38:35;;;;;;;23.50;17.30;;;;;;;-128.00;-1.00;-1.00;106705;1254;1013281;-57
2023/11/13 08:41:06;;;;;;;14.10;10.40;;;;;;;-128.00;-1.00;-1.00;106610;1254;1012393;-57
2023/11/13 08:43:34;;;;;;;12.10;10.80;;;;;;;-128.00;-1.00;-1.00;106658;1254;1013079;-57
2023/11/13 08:46:01;;;;;;;15.10;11.40;;;;;;;-128.00;-1.00;-1.00;106648;1254;1002567;-57
2023/11/13 08:48:29;;;;;;;14.20;10.30;;;;;;;-128.00;-1.00;-1.00;106519;1254;1002581;-57
2023/11/13 08:51:00;;;;;;;14.30;10.70;;;;;;;-128.00;-1.00;-1.00;106635;1254;1002270;-59
2023/11/13 08:53:29;;;;;;;22.30;14.40;;;;;;;-128.00;-1.00;-1.00;106665;1254;1012663;-58
2023/11/13 08:55:57;;;;;;;15.00;11.60;;;;;;;-128.00;-1.00;-1.00;106632;1254;1013354;-58
2023/11/13 08:58:26;;;;;;;20.20;11.80;;;;;;;-128.00;-1.00;-1.00;106700;1254;1002354;-60
2023/11/13 09:00:53;;;;;;;13.50;10.90;;;;;;;-128.00;-1.00;-1.00;106624;1254;1010574;-58
2023/11/13 09:03:21;;;;;;;16.90;10.60;;;;;;;-128.00;-1.00;-1.00;106637;1254;1002575;-56
2023/11/13 09:05:49;;;;;;;13.10;9.10;;;;;;;-128.00;-1.00;-1.00;106353;1254;1002946;-55
2023/11/13 09:08:17;;;;;;;17.60;12.40;;;;;;;-128.00;-1.00;-1.00;106656;1254;1003185;-56
2023/11/13 09:10:44;;;;;;;17.30;12.40;;;;;;;-128.00;-1.00;-1.00;106832;1253;1001927;-56
2023/11/13 09:13:13;;;;;;;19.30;12.80;;;;;;;-128.00;-1.00;-1.00;106720;1251;1012398;-56
2023/11/13 09:15:41;;;;;;;15.40;12.30;;;;;;;-128.00;-1.00;-1.00;106931;1251;1004838;-57
2023/11/13 09:18:09;;;;;;;15.30;11.40;;;;;;;-128.00;-1.00;-1.00;106930;1252;1002778;-57
2023/11/13 09:20:41;;;;;;;17.60;13.50;;;;;;;-128.00;-1.00;-1.00;106880;1251;1012704;-57
2023/11/13 09:23:10;;;;;;;28.80;17.40;;;;;;;-128.00;-1.00;-1.00;106878;1251;1009536;-57
2023/11/13 09:25:38;;;;;;;19.30;14.20;;;;;;;-128.00;-1.00;-1.00;106752;1251;1011140;-56
2023/11/13 09:28:07;;;;;;;34.10;23.00;;;;;;;-128.00;-1.00;-1.00;106958;1250;1002001;-57
2023/11/13 09:30:36;;;;;;;29.20;14.80;;;;;;;-128.00;-1.00;-1.00;106840;1250;1012899;-57
2023/11/13 09:33:05;;;;;;;17.50;13.40;;;;;;;-128.00;-1.00;-1.00;106865;1250;1002476;-56
2023/11/13 09:35:33;;;;;;;14.40;11.90;;;;;;;-128.00;-1.00;-1.00;106933;1250;1011023;-56
2023/11/13 09:38:01;;;;;;;21.10;10.40;;;;;;;-128.00;-1.00;-1.00;106911;1250;1011011;-57
2023/11/13 09:40:31;;;;;;;21.70;15.80;;;;;;;-128.00;-1.00;-1.00;106932;1250;1012963;-57
2023/11/13 09:43:15;;;;;;;28.00;15.70;;;;;;;-128.00;-1.00;-1.00;106728;1250;1012625;-58
2023/11/13 09:45:46;;;;;;;19.00;12.40;;;;;;;-128.00;-1.00;-1.00;106913;1250;1013108;-57
2023/11/13 09:48:16;;;;;;;17.30;12.50;;;;;;;-128.00;-1.00;-1.00;106851;1251;1009765;-58
2023/11/13 09:50:44;;;;;;;14.30;11.20;;;;;;;-128.00;-1.00;-1.00;106865;1250;1012700;-57
2023/11/13 09:53:15;;;;;;;21.20;12.40;;;;;;;-128.00;-1.00;-1.00;106788;1250;1002416;-61
2023/11/13 09:55:46;;;;;;;42.40;21.60;;;;;;;-128.00;-1.00;-1.00;106846;1250;1012814;-59
2023/11/13 09:58:14;;;;;;;15.10;11.20;;;;;;;-128.00;-1.00;-1.00;106583;1250;1012592;-59
2023/11/13 10:00:42;;;;;;;14.80;11.90;;;;;;;-128.00;-1.00;-1.00;106717;1254;1002768;-59
2023/11/13 10:03:10;;;;;;;14.50;11.60;;;;;;;-128.00;-1.00;-1.00;106771;1254;1003912;-60
2023/11/13 10:05:39;;;;;;;14.70;11.10;;;;;;;-128.00;-1.00;-1.00;106523;1254;1002323;-60
2023/11/13 10:08:06;;;;;;;14.10;10.40;;;;;;;-128.00;-1.00;-1.00;106626;1254;1012334;-57
2023/11/13 10:10:34;;;;;;;13.40;10.70;;;;;;;-128.00;-1.00;-1.00;106627;1254;1002255;-56
2023/11/13 10:13:04;;;;;;;11.30;9.70;;;;;;;-128.00;-1.00;-1.00;106650;1254;1002565;-59
2023/11/13 10:15:32;;;;;;;14.10;10.10;;;;;;;-128.00;-1.00;-1.00;106463;1254;1011923;-59
2023/11/13 10:18:08;;;;;;;13.70;10.60;;;;;;;-128.00;-1.00;-1.00;106404;1254;1013527;-60
2023/11/13 10:20:43;;;;;;;11.80;10.30;;;;;;;-128.00;-1.00;-1.00;106188;1255;1013310;-60
2023/11/13 10:23:13;;;;;;;14.30;10.40;;;;;;;-128.00;-1.00;-1.00;106609;1254;1012420;-58
2023/11/13 10:25:47;;;;;;;17.00;10.90;;;;;;;-128.00;-1.00;-1.00;106633;1254;1010565;-58
2023/11/13 10:28:17;;;;;;;18.50;11.30;;;;;;;-128.00;-1.00;-1.00;106626;1254;1011722;-57
2023/11/13 10:30:51;;;;;;;14.20;11.20;;;;;;;-128.00;-1.00;-1.00;106610;1254;1012889;-61
2023/11/13 10:33:19;;;;;;;13.20;11.30;;;;;;;-128.00;-1.00;-1.00;106735;1253;1011990;-58
2023/11/13 10:35:51;;;;;;;12.60;10.40;;;;;;;-128.00;-1.00;-1.00;106627;1253;1013367;-57
2023/11/13 10:38:22;;;;;;;15.60;11.20;;;;;;;-128.00;-1.00;-1.00;106772;1253;1009999;-57
2023/11/13 10:40:55;;;;;;;12.70;10.60;;;;;;;-128.00;-1.00;-1.00;106827;1253;1011011;-58
2023/11/13 10:43:32;;;;;;;10.60;9.50;;;;;;;-128.00;-1.00;-1.00;106840;1253;1015499;-57
2023/11/13 10:46:00;;;;;;;13.00;8.40;;;;;;;-128.00;-1.00;-1.00;106807;1252;1014452;-57
2023/11/13 10:48:40;;;;;;;14.20;9.90;;;;;;;-128.00;-1.00;-1.00;106851;1252;1012872;-58
2023/11/13 10:51:09;;;;;;;12.20;8.70;;;;;;;-128.00;-1.00;-1.00;106821;1253;1010342;-57
2023/11/13 10:53:42;;;;;;;13.90;10.20;;;;;;;-128.00;-1.00;-1.00;106810;1252;1010471;-56
2023/11/13 10:56:10;;;;;;;13.00;9.30;;;;;;;-128.00;-1.00;-1.00;106887;1252;1015242;-57
2023/11/13 10:58:38;;;;;;;11.10;9.40;;;;;;;-128.00;-1.00;-1.00;106775;1253;1002213;-56
2023/11/13 11:01:16;;;;;;;9.60;7.20;;;;;;;-128.00;-1.00;-1.00;106790;1252;1004211;-56
2023/11/13 11:03:45;;;;;;;23.90;12.90;;;;;;;-128.00;-1.00;-1.00;106676;1251;1012277;-56
2023/11/13 11:06:20;;;;;;;12.90;10.70;;;;;;;-128.00;-1.00;-1.00;106832;1252;1013404;-57